sensor_id;sensor_type;location;lat;lon;timestamp;pressure;altitude;pressure_sealevel;temperature;humidity
32251;BME280;41295;48.518;9.206;2023-03-26T00:01:20;96754.22;;;9.25;65.99
32251;BME280;41295;48.518;9.206;2023-03-26T00:03:25;96751.69;;;9.23;66.48
32251;BME280;41295;48.518;9.206;2023-03-26T00:05:28;96755.91;;;9.26;66.44
32251;BME280;41295;48.518;9.206;2023-03-26T00:07:32;96760.88;;;9.32;66.10
32251;BME280;41295;48.518;9.206;2023-03-26T00:09:35;96759.50;;;9.23;66.44
32251;BME280;41295;48.518;9.206;2023-03-26T00:11:38;96754.75;;;9.33;65.86
32251;BME280;41295;48.518;9.206;2023-03-26T00:13:41;96762.19;;;9.20;66.80
32251;BME280;41295;48.518;9.206;2023-03-26T00:15:44;96763.25;;;9.16;66.71
32251;BME280;41295;48.518;9.206;2023-03-26T00:17:47;96760.06;;;9.09;67.08
32251;BME280;41295;48.518;9.206;2023-03-26T00:19:55;96754.47;;;9.19;66.34
32251;BME280;41295;48.518;9.206;2023-03-26T00:21:57;96762.31;;;9.17;66.50
32251;BME280;41295;48.518;9.206;2023-03-26T00:24:03;96771.44;;;9.27;66.11
32251;BME280;41295;48.518;9.206;2023-03-26T00:26:06;96773.03;;;9.32;66.27
32251;BME280;41295;48.518;9.206;2023-03-26T00:28:10;96767.09;;;9.71;64.99
32251;BME280;41295;48.518;9.206;2023-03-26T00:30:14;96768.19;;;9.45;65.61
32251;BME280;41295;48.518;9.206;2023-03-26T00:32:17;96761.47;;;9.39;66.35
32251;BME280;41295;48.518;9.206;2023-03-26T00:34:19;96760.22;;;9.48;65.50
32251;BME280;41295;48.518;9.206;2023-03-26T00:36:25;96765.94;;;9.35;66.11
32251;BME280;41295;48.518;9.206;2023-03-26T00:38:28;96774.78;;;9.31;66.67
32251;BME280;41295;48.518;9.206;2023-03-26T00:40:31;96768.63;;;9.34;66.29
32251;BME280;41295;48.518;9.206;2023-03-26T00:42:37;96762.25;;;9.41;65.63
32251;BME280;41295;48.518;9.206;2023-03-26T00:44:41;96754.25;;;9.67;64.67
32251;BME280;41295;48.518;9.206;2023-03-26T00:46:43;96741.63;;;9.57;64.39
32251;BME280;41295;48.518;9.206;2023-03-26T00:48:46;96750.75;;;9.47;64.82
32251;BME280;41295;48.518;9.206;2023-03-26T00:50:50;96750.69;;;9.48;64.71
32251;BME280;41295;48.518;9.206;2023-03-26T00:52:54;96742.66;;;9.53;64.56
32251;BME280;41295;48.518;9.206;2023-03-26T00:54:57;96743.19;;;9.41;65.23
32251;BME280;41295;48.518;9.206;2023-03-26T00:57:00;96740.72;;;9.37;65.90
32251;BME280;41295;48.518;9.206;2023-03-26T00:59:03;96740.13;;;9.31;66.05
32251;BME280;41295;48.518;9.206;2023-03-26T01:01:07;96739.50;;;9.24;66.36
32251;BME280;41295;48.518;9.206;2023-03-26T01:03:13;96732.84;;;9.17;66.71
32251;BME280;41295;48.518;9.206;2023-03-26T01:05:41;96727.84;;;9.12;67.24
32251;BME280;41295;48.518;9.206;2023-03-26T01:07:44;96733.13;;;9.10;67.62
32251;BME280;41295;48.518;9.206;2023-03-26T01:09:50;96726.28;;;9.08;68.12
32251;BME280;41295;48.518;9.206;2023-03-26T01:11:52;96730.66;;;9.07;68.08
32251;BME280;41295;48.518;9.206;2023-03-26T01:13:58;96729.59;;;9.11;67.56
32251;BME280;41295;48.518;9.206;2023-03-26T01:16:02;96726.41;;;9.05;68.03
32251;BME280;41295;48.518;9.206;2023-03-26T01:18:06;96720.34;;;9.04;67.75
32251;BME280;41295;48.518;9.206;2023-03-26T01:20:14;96719.69;;;8.99;67.90
32251;BME280;41295;48.518;9.206;2023-03-26T01:22:21;96706.94;;;8.93;68.20
32251;BME280;41295;48.518;9.206;2023-03-26T01:24:26;96706.16;;;8.90;68.33
32251;BME280;41295;48.518;9.206;2023-03-26T01:26:57;96696.78;;;8.86;68.69
32251;BME280;41295;48.518;9.206;2023-03-26T01:29:04;96690.75;;;8.86;68.70
32251;BME280;41295;48.518;9.206;2023-03-26T01:31:18;96696.06;;;8.83;68.84
32251;BME280;41295;48.518;9.206;2023-03-26T01:33:28;96685.72;;;8.81;68.53
32251;BME280;41295;48.518;9.206;2023-03-26T01:35:40;96687.50;;;8.81;68.51
32251;BME280;41295;48.518;9.206;2023-03-26T01:37:49;96677.38;;;8.73;68.67
32251;BME280;41295;48.518;9.206;2023-03-26T01:39:56;96680.72;;;8.76;68.49
32251;BME280;41295;48.518;9.206;2023-03-26T01:42:06;96674.66;;;8.76;68.56
32251;BME280;41295;48.518;9.206;2023-03-26T01:44:15;96666.81;;;8.77;68.44
32251;BME280;41295;48.518;9.206;2023-03-26T01:46:22;96664.66;;;8.66;69.11
32251;BME280;41295;48.518;9.206;2023-03-26T01:48:30;96664.03;;;8.60;69.34
32251;BME280;41295;48.518;9.206;2023-03-26T01:50:34;96657.09;;;8.60;69.14
32251;BME280;41295;48.518;9.206;2023-03-26T01:52:37;96651.19;;;8.55;69.88
32251;BME280;41295;48.518;9.206;2023-03-26T01:54:42;96641.72;;;8.54;70.10
32251;BME280;41295;48.518;9.206;2023-03-26T01:57:00;96639.13;;;8.54;70.01
32251;BME280;41295;48.518;9.206;2023-03-26T01:59:14;96633.00;;;8.55;69.59
32251;BME280;41295;48.518;9.206;2023-03-26T02:01:25;96633.94;;;8.54;70.00
32251;BME280;41295;48.518;9.206;2023-03-26T02:03:34;96639.13;;;8.54;70.22
32251;BME280;41295;48.518;9.206;2023-03-26T02:05:45;96635.59;;;8.55;69.93
32251;BME280;41295;48.518;9.206;2023-03-26T02:07:52;96629.69;;;8.51;70.20
32251;BME280;41295;48.518;9.206;2023-03-26T02:10:03;96619.28;;;8.51;70.00
32251;BME280;41295;48.518;9.206;2023-03-26T02:12:09;96614.94;;;8.52;70.27
32251;BME280;41295;48.518;9.206;2023-03-26T02:14:12;96602.78;;;8.52;70.22
32251;BME280;41295;48.518;9.206;2023-03-26T02:16:16;96600.97;;;8.54;70.24
32251;BME280;41295;48.518;9.206;2023-03-26T02:18:20;96601.72;;;8.58;69.70
32251;BME280;41295;48.518;9.206;2023-03-26T02:20:25;96599.19;;;8.57;70.00
32251;BME280;41295;48.518;9.206;2023-03-26T02:22:30;96586.19;;;8.57;69.86
32251;BME280;41295;48.518;9.206;2023-03-26T02:24:33;96588.97;;;8.52;70.41
32251;BME280;41295;48.518;9.206;2023-03-26T02:26:35;96582.91;;;8.51;70.33
32251;BME280;41295;48.518;9.206;2023-03-26T02:28:40;96582.97;;;8.50;70.80
32251;BME280;41295;48.518;9.206;2023-03-26T02:30:43;96584.72;;;8.49;70.67
32251;BME280;41295;48.518;9.206;2023-03-26T02:32:47;96583.75;;;8.52;70.70
32251;BME280;41295;48.518;9.206;2023-03-26T02:34:52;96576.84;;;8.51;70.93
32251;BME280;41295;48.518;9.206;2023-03-26T02:36:55;96573.47;;;8.49;70.72
32251;BME280;41295;48.518;9.206;2023-03-26T02:38:58;96563.88;;;8.51;71.02
32251;BME280;41295;48.518;9.206;2023-03-26T02:41:01;96559.47;;;8.53;70.89
32251;BME280;41295;48.518;9.206;2023-03-26T02:43:04;96559.47;;;8.53;70.73
32251;BME280;41295;48.518;9.206;2023-03-26T02:45:08;96558.53;;;8.56;70.77
32251;BME280;41295;48.518;9.206;2023-03-26T02:47:11;96555.00;;;8.57;71.17
32251;BME280;41295;48.518;9.206;2023-03-26T02:49:13;96548.91;;;8.58;70.81
32251;BME280;41295;48.518;9.206;2023-03-26T02:51:16;96541.88;;;8.60;70.85
32251;BME280;41295;48.518;9.206;2023-03-26T02:53:20;96540.06;;;8.62;70.84
32251;BME280;41295;48.518;9.206;2023-03-26T02:55:24;96538.47;;;8.59;71.22
32251;BME280;41295;48.518;9.206;2023-03-26T02:57:27;96529.59;;;8.63;71.43
32251;BME280;41295;48.518;9.206;2023-03-26T02:59:30;96526.13;;;8.64;71.24
32251;BME280;41295;48.518;9.206;2023-03-26T03:01:34;96520.00;;;8.65;71.22
32251;BME280;41295;48.518;9.206;2023-03-26T03:03:37;96521.75;;;8.65;70.70
32251;BME280;41295;48.518;9.206;2023-03-26T03:05:39;96510.53;;;8.64;70.86
32251;BME280;41295;48.518;9.206;2023-03-26T03:07:43;96508.81;;;8.63;70.47
32251;BME280;41295;48.518;9.206;2023-03-26T03:09:47;96501.09;;;8.62;70.31
32251;BME280;41295;48.518;9.206;2023-03-26T03:11:50;96499.47;;;8.59;70.59
32251;BME280;41295;48.518;9.206;2023-03-26T03:13:53;96496.88;;;8.59;70.85
32251;BME280;41295;48.518;9.206;2023-03-26T03:15:56;96496.09;;;8.57;70.63
32251;BME280;41295;48.518;9.206;2023-03-26T03:18:00;96491.78;;;8.56;70.67
32251;BME280;41295;48.518;9.206;2023-03-26T03:20:04;96488.44;;;8.52;70.64
32251;BME280;41295;48.518;9.206;2023-03-26T03:22:09;96476.31;;;8.53;70.57
32251;BME280;41295;48.518;9.206;2023-03-26T03:24:12;96476.25;;;8.54;70.94
32251;BME280;41295;48.518;9.206;2023-03-26T03:26:20;96474.50;;;8.55;70.76
32251;BME280;41295;48.518;9.206;2023-03-26T03:28:24;96475.50;;;8.73;69.59
32251;BME280;41295;48.518;9.206;2023-03-26T03:30:26;96468.50;;;8.53;70.33
32251;BME280;41295;48.518;9.206;2023-03-26T03:32:29;96475.66;;;8.48;70.77
32251;BME280;41295;48.518;9.206;2023-03-26T03:34:33;96474.88;;;8.46;70.59
32251;BME280;41295;48.518;9.206;2023-03-26T03:36:39;96473.44;;;8.38;70.83
32251;BME280;41295;48.518;9.206;2023-03-26T03:38:41;96466.56;;;8.37;71.15
32251;BME280;41295;48.518;9.206;2023-03-26T03:40:44;96460.59;;;8.35;71.19
32251;BME280;41295;48.518;9.206;2023-03-26T03:42:47;96452.78;;;8.35;71.25
32251;BME280;41295;48.518;9.206;2023-03-26T03:44:49;96436.28;;;8.36;71.58
32251;BME280;41295;48.518;9.206;2023-03-26T03:46:52;96437.00;;;8.40;71.41
32251;BME280;41295;48.518;9.206;2023-03-26T03:48:56;96437.78;;;8.42;71.57
32251;BME280;41295;48.518;9.206;2023-03-26T03:51:00;96438.50;;;8.46;71.44
32251;BME280;41295;48.518;9.206;2023-03-26T03:53:03;96441.03;;;8.47;71.51
32251;BME280;41295;48.518;9.206;2023-03-26T03:55:06;96447.16;;;8.46;71.18
32251;BME280;41295;48.518;9.206;2023-03-26T03:57:10;96445.13;;;8.53;70.58
32251;BME280;41295;48.518;9.206;2023-03-26T03:59:14;96440.31;;;8.43;70.87
32251;BME280;41295;48.518;9.206;2023-03-26T04:01:17;96439.41;;;8.45;70.90
32251;BME280;41295;48.518;9.206;2023-03-26T04:03:23;96436.97;;;8.41;70.80
32251;BME280;41295;48.518;9.206;2023-03-26T04:05:34;96427.53;;;8.39;70.58
32251;BME280;41295;48.518;9.206;2023-03-26T04:07:38;96417.72;;;8.46;70.44
32251;BME280;41295;48.518;9.206;2023-03-26T04:09:41;96418.34;;;8.51;69.99
32251;BME280;41295;48.518;9.206;2023-03-26T04:11:43;96412.13;;;8.55;70.01
32251;BME280;41295;48.518;9.206;2023-03-26T04:13:46;96409.25;;;8.63;69.63
32251;BME280;41295;48.518;9.206;2023-03-26T04:15:48;96398.88;;;8.61;69.29
32251;BME280;41295;48.518;9.206;2023-03-26T04:17:51;96402.25;;;8.63;69.79
32251;BME280;41295;48.518;9.206;2023-03-26T04:19:54;96389.28;;;8.63;69.56
32251;BME280;41295;48.518;9.206;2023-03-26T04:21:56;96393.50;;;8.66;69.42
32251;BME280;41295;48.518;9.206;2023-03-26T04:24:04;96397.31;;;8.78;69.65
32251;BME280;41295;48.518;9.206;2023-03-26T04:26:10;96392.81;;;8.82;69.27
32251;BME280;41295;48.518;9.206;2023-03-26T04:28:24;96391.19;;;8.79;69.42
32251;BME280;41295;48.518;9.206;2023-03-26T04:30:27;96395.63;;;8.77;68.83
32251;BME280;41295;48.518;9.206;2023-03-26T04:32:31;96387.69;;;8.80;68.87
32251;BME280;41295;48.518;9.206;2023-03-26T04:34:34;96382.63;;;8.77;68.21
32251;BME280;41295;48.518;9.206;2023-03-26T04:36:37;96374.84;;;8.77;68.28
32251;BME280;41295;48.518;9.206;2023-03-26T04:38:44;96386.19;;;8.74;68.09
32251;BME280;41295;48.518;9.206;2023-03-26T04:40:50;96366.59;;;8.86;67.81
32251;BME280;41295;48.518;9.206;2023-03-26T04:42:53;96370.53;;;8.95;66.40
32251;BME280;41295;48.518;9.206;2023-03-26T04:44:58;96369.28;;;8.85;67.56
32251;BME280;41295;48.518;9.206;2023-03-26T04:47:03;96354.75;;;8.81;67.80
32251;BME280;41295;48.518;9.206;2023-03-26T04:49:06;96346.09;;;8.80;67.53
32251;BME280;41295;48.518;9.206;2023-03-26T04:51:09;96345.47;;;8.94;67.52
32251;BME280;41295;48.518;9.206;2023-03-26T04:53:19;96350.75;;;8.93;66.35
32251;BME280;41295;48.518;9.206;2023-03-26T04:55:24;96341.22;;;8.92;66.57
32251;BME280;41295;48.518;9.206;2023-03-26T04:57:33;96337.88;;;8.89;66.78
32251;BME280;41295;48.518;9.206;2023-03-26T04:59:37;96331.63;;;8.94;66.95
32251;BME280;41295;48.518;9.206;2023-03-26T05:01:41;96330.00;;;8.91;67.25
32251;BME280;41295;48.518;9.206;2023-03-26T05:03:46;96330.00;;;8.91;67.30
32251;BME280;41295;48.518;9.206;2023-03-26T05:05:49;96328.19;;;8.93;67.33
32251;BME280;41295;48.518;9.206;2023-03-26T05:07:51;96335.00;;;8.96;67.85
32251;BME280;41295;48.518;9.206;2023-03-26T05:09:54;96335.75;;;8.98;67.46
32251;BME280;41295;48.518;9.206;2023-03-26T05:11:57;96330.84;;;8.92;67.77
32251;BME280;41295;48.518;9.206;2023-03-26T05:14:01;96329.22;;;8.89;67.54
32251;BME280;41295;48.518;9.206;2023-03-26T05:16:05;96328.94;;;8.95;67.43
32251;BME280;41295;48.518;9.206;2023-03-26T05:18:07;96328.81;;;8.98;66.98
32251;BME280;41295;48.518;9.206;2023-03-26T05:20:16;96331.69;;;8.92;67.04
32251;BME280;41295;48.518;9.206;2023-03-26T05:22:21;96323.03;;;8.92;67.21
32251;BME280;41295;48.518;9.206;2023-03-26T05:24:23;96313.84;;;9.04;66.10
32251;BME280;41295;48.518;9.206;2023-03-26T05:26:27;96303.78;;;8.96;65.80
32251;BME280;41295;48.518;9.206;2023-03-26T05:28:30;96315.13;;;8.95;65.45
32251;BME280;41295;48.518;9.206;2023-03-26T05:30:34;96313.00;;;9.03;64.85
32251;BME280;41295;48.518;9.206;2023-03-26T05:32:37;96295.63;;;9.04;63.75
32251;BME280;41295;48.518;9.206;2023-03-26T05:34:40;96293.84;;;9.04;64.36
32251;BME280;41295;48.518;9.206;2023-03-26T05:36:42;96289.50;;;9.05;64.55
32251;BME280;41295;48.518;9.206;2023-03-26T05:38:48;96285.94;;;9.07;64.25
32251;BME280;41295;48.518;9.206;2023-03-26T05:40:56;96278.13;;;9.07;63.36
32251;BME280;41295;48.518;9.206;2023-03-26T05:42:59;96271.94;;;9.10;63.39
32251;BME280;41295;48.518;9.206;2023-03-26T05:45:01;96275.38;;;9.10;63.22
32251;BME280;41295;48.518;9.206;2023-03-26T05:47:05;96261.41;;;9.13;63.49
32251;BME280;41295;48.518;9.206;2023-03-26T05:49:08;96253.44;;;9.16;63.00
32251;BME280;41295;48.518;9.206;2023-03-26T05:51:12;96254.34;;;9.15;62.83
32251;BME280;41295;48.518;9.206;2023-03-26T05:53:16;96254.25;;;9.17;62.51
32251;BME280;41295;48.518;9.206;2023-03-26T05:55:19;96249.06;;;9.17;62.45
32251;BME280;41295;48.518;9.206;2023-03-26T05:57:22;96242.97;;;9.18;62.52
32251;BME280;41295;48.518;9.206;2023-03-26T05:59:28;96255.81;;;9.21;62.18
32251;BME280;41295;48.518;9.206;2023-03-26T06:01:31;96249.09;;;9.34;60.82
32251;BME280;41295;48.518;9.206;2023-03-26T06:03:36;96244.81;;;9.33;60.65
32251;BME280;41295;48.518;9.206;2023-03-26T06:05:39;96237.16;;;9.66;57.93
32251;BME280;41295;48.518;9.206;2023-03-26T06:07:43;96237.09;;;9.49;57.80
32251;BME280;41295;48.518;9.206;2023-03-26T06:09:46;96235.84;;;9.39;58.72
32251;BME280;41295;48.518;9.206;2023-03-26T06:11:48;96229.28;;;9.32;59.35
32251;BME280;41295;48.518;9.206;2023-03-26T06:13:51;96224.16;;;9.30;59.95
32251;BME280;41295;48.518;9.206;2023-03-26T06:15:54;96225.63;;;9.36;59.48
32251;BME280;41295;48.518;9.206;2023-03-26T06:17:58;96223.47;;;9.26;60.15
32251;BME280;41295;48.518;9.206;2023-03-26T06:20:02;96221.63;;;9.29;60.49
32251;BME280;41295;48.518;9.206;2023-03-26T06:22:09;96213.91;;;9.27;60.36
32251;BME280;41295;48.518;9.206;2023-03-26T06:24:12;96214.03;;;9.42;60.24
32251;BME280;41295;48.518;9.206;2023-03-26T06:26:16;96214.13;;;9.40;60.66
32251;BME280;41295;48.518;9.206;2023-03-26T06:28:19;96204.88;;;9.34;61.01
32251;BME280;41295;48.518;9.206;2023-03-26T06:30:22;96206.91;;;9.45;61.43
32251;BME280;41295;48.518;9.206;2023-03-26T06:32:24;96203.09;;;9.35;60.78
32251;BME280;41295;48.518;9.206;2023-03-26T06:34:27;96206.09;;;9.45;61.14
32251;BME280;41295;48.518;9.206;2023-03-26T06:36:31;96200.03;;;9.44;61.47
32251;BME280;41295;48.518;9.206;2023-03-26T06:38:33;96199.19;;;9.44;61.65
32251;BME280;41295;48.518;9.206;2023-03-26T06:40:36;96192.78;;;9.33;62.50
32251;BME280;41295;48.518;9.206;2023-03-26T06:42:39;96199.88;;;9.30;62.82
32251;BME280;41295;48.518;9.206;2023-03-26T06:45:02;96190.50;;;9.27;63.60
32251;BME280;41295;48.518;9.206;2023-03-26T06:47:05;96180.91;;;9.27;63.78
32251;BME280;41295;48.518;9.206;2023-03-26T06:49:07;96181.59;;;9.31;64.02
32251;BME280;41295;48.518;9.206;2023-03-26T06:51:10;96174.81;;;9.29;64.56
32251;BME280;41295;48.518;9.206;2023-03-26T06:53:14;96172.38;;;9.25;65.23
32251;BME280;41295;48.518;9.206;2023-03-26T06:55:17;96158.78;;;9.36;64.62
32251;BME280;41295;48.518;9.206;2023-03-26T06:57:19;96156.44;;;9.32;65.29
32251;BME280;41295;48.518;9.206;2023-03-26T06:59:22;96148.94;;;9.43;64.54
32251;BME280;41295;48.518;9.206;2023-03-26T07:01:25;96149.47;;;9.32;65.01
32251;BME280;41295;48.518;9.206;2023-03-26T07:03:27;96146.19;;;9.29;65.38
32251;BME280;41295;48.518;9.206;2023-03-26T07:05:31;96145.78;;;9.36;65.90
32251;BME280;41295;48.518;9.206;2023-03-26T07:07:33;96129.47;;;9.33;65.62
32251;BME280;41295;48.518;9.206;2023-03-26T07:09:47;96132.31;;;9.46;65.77
32251;BME280;41295;48.518;9.206;2023-03-26T07:11:50;96122.06;;;9.43;66.05
32251;BME280;41295;48.518;9.206;2023-03-26T07:13:52;96128.47;;;9.53;65.50
32251;BME280;41295;48.518;9.206;2023-03-26T07:15:56;96126.41;;;9.42;65.51
32251;BME280;41295;48.518;9.206;2023-03-26T07:17:59;96124.88;;;9.38;66.14
32251;BME280;41295;48.518;9.206;2023-03-26T07:20:02;96119.38;;;9.44;66.70
32251;BME280;41295;48.518;9.206;2023-03-26T07:22:05;96113.94;;;9.49;66.80
32251;BME280;41295;48.518;9.206;2023-03-26T07:24:09;96112.22;;;9.32;67.74
32251;BME280;41295;48.518;9.206;2023-03-26T07:26:24;96110.72;;;9.44;67.33
32251;BME280;41295;48.518;9.206;2023-03-26T07:28:33;96101.25;;;9.43;67.69
32251;BME280;41295;48.518;9.206;2023-03-26T07:30:45;96099.72;;;9.38;67.83
32251;BME280;41295;48.518;9.206;2023-03-26T07:32:54;96091.47;;;9.30;68.25
32251;BME280;41295;48.518;9.206;2023-03-26T07:35:04;96087.94;;;9.31;68.66
32251;BME280;41295;48.518;9.206;2023-03-26T07:37:15;96085.84;;;9.38;68.93
32251;BME280;41295;48.518;9.206;2023-03-26T07:39:36;96084.44;;;9.32;69.41
32251;BME280;41295;48.518;9.206;2023-03-26T07:41:45;96073.66;;;9.22;69.88
32251;BME280;41295;48.518;9.206;2023-03-26T07:44:00;96065.75;;;9.24;69.95
32251;BME280;41295;48.518;9.206;2023-03-26T07:46:09;96059.19;;;9.17;70.18
32251;BME280;41295;48.518;9.206;2023-03-26T07:48:16;96048.06;;;9.14;70.66
32251;BME280;41295;48.518;9.206;2023-03-26T07:50:22;96056.81;;;9.30;70.42
32251;BME280;41295;48.518;9.206;2023-03-26T07:52:25;96047.66;;;9.22;70.67
32251;BME280;41295;48.518;9.206;2023-03-26T07:54:28;96045.13;;;9.21;71.05
32251;BME280;41295;48.518;9.206;2023-03-26T07:56:33;96034.88;;;9.18;70.91
32251;BME280;41295;48.518;9.206;2023-03-26T07:58:48;96037.66;;;9.14;71.21
32251;BME280;41295;48.518;9.206;2023-03-26T08:00:55;96036.84;;;9.30;70.21
32251;BME280;41295;48.518;9.206;2023-03-26T08:03:20;96036.41;;;9.22;70.36
32251;BME280;41295;48.518;9.206;2023-03-26T08:05:28;96034.63;;;9.22;70.45
32251;BME280;41295;48.518;9.206;2023-03-26T08:07:39;96038.94;;;9.23;71.03
32251;BME280;41295;48.518;9.206;2023-03-26T08:09:56;96037.16;;;9.24;70.86
32251;BME280;41295;48.518;9.206;2023-03-26T08:12:09;96033.53;;;9.44;70.20
32251;BME280;41295;48.518;9.206;2023-03-26T08:14:26;96030.94;;;9.60;69.87
32251;BME280;41295;48.518;9.206;2023-03-26T08:16:35;96027.94;;;9.84;69.37
32251;BME280;41295;48.518;9.206;2023-03-26T08:18:44;96030.28;;;9.73;70.56
32251;BME280;41295;48.518;9.206;2023-03-26T08:20:51;96011.22;;;9.72;70.47
32251;BME280;41295;48.518;9.206;2023-03-26T08:23:04;96036.13;;;9.60;71.28
32251;BME280;41295;48.518;9.206;2023-03-26T08:25:17;96042.34;;;9.58;71.10
32251;BME280;41295;48.518;9.206;2023-03-26T08:27:26;96042.00;;;9.48;71.55
32251;BME280;41295;48.518;9.206;2023-03-26T08:29:37;96039.28;;;9.33;72.51
32251;BME280;41295;48.518;9.206;2023-03-26T08:31:47;96034.84;;;9.35;72.68
32251;BME280;41295;48.518;9.206;2023-03-26T08:33:50;96024.03;;;9.43;72.54
32251;BME280;41295;48.518;9.206;2023-03-26T08:35:52;96029.31;;;9.25;73.09
32251;BME280;41295;48.518;9.206;2023-03-26T08:37:55;96033.78;;;9.40;73.16
32251;BME280;41295;48.518;9.206;2023-03-26T08:39:57;96021.16;;;9.32;73.66
32251;BME280;41295;48.518;9.206;2023-03-26T08:42:28;96014.97;;;9.34;73.38
32251;BME280;41295;48.518;9.206;2023-03-26T08:45:11;96010.50;;;9.36;73.70
32251;BME280;41295;48.518;9.206;2023-03-26T08:47:52;96011.75;;;9.29;74.26
32251;BME280;41295;48.518;9.206;2023-03-26T08:50:18;96013.69;;;9.25;74.58
32251;BME280;41295;48.518;9.206;2023-03-26T08:55:17;96016.34;;;9.24;75.69
32251;BME280;41295;48.518;9.206;2023-03-26T08:57:44;96024.44;;;9.35;75.52
32251;BME280;41295;48.518;9.206;2023-03-26T09:00:18;96030.13;;;9.26;75.50
32251;BME280;41295;48.518;9.206;2023-03-26T09:05:13;96036.34;;;9.23;75.64
32251;BME280;41295;48.518;9.206;2023-03-26T09:07:41;96041.63;;;9.22;75.66
32251;BME280;41295;48.518;9.206;2023-03-26T09:15:29;96036.44;;;9.38;76.75
32251;BME280;41295;48.518;9.206;2023-03-26T09:17:55;96042.72;;;9.34;76.90
32251;BME280;41295;48.518;9.206;2023-03-26T09:23:29;96031.25;;;9.54;76.95
32251;BME280;41295;48.518;9.206;2023-03-26T09:26:00;96037.00;;;9.61;75.84
32251;BME280;41295;48.518;9.206;2023-03-26T09:31:11;96031.78;;;9.61;76.61
32251;BME280;41295;48.518;9.206;2023-03-26T09:33:30;96028.34;;;9.77;76.34
32251;BME280;41295;48.518;9.206;2023-03-26T09:35:48;96028.09;;;9.81;74.87
32251;BME280;41295;48.518;9.206;2023-03-26T09:37:56;96027.59;;;9.74;75.13
32251;BME280;41295;48.518;9.206;2023-03-26T09:40:10;96033.28;;;9.65;75.84
32251;BME280;41295;48.518;9.206;2023-03-26T09:42:18;96030.84;;;9.62;76.36
32251;BME280;41295;48.518;9.206;2023-03-26T09:47:25;96028.75;;;9.69;76.18
32251;BME280;41295;48.518;9.206;2023-03-26T09:49:45;96038.34;;;9.68;76.44
32251;BME280;41295;48.518;9.206;2023-03-26T09:52:08;96026.06;;;9.70;77.14
32251;BME280;41295;48.518;9.206;2023-03-26T09:54:38;96026.66;;;9.92;76.23
32251;BME280;41295;48.518;9.206;2023-03-26T09:56:53;96023.81;;;9.96;76.32
32251;BME280;41295;48.518;9.206;2023-03-26T09:59:19;96020.59;;;10.23;75.10
32251;BME280;41295;48.518;9.206;2023-03-26T10:01:32;96012.31;;;10.48;68.57
32251;BME280;41295;48.518;9.206;2023-03-26T10:03:46;96007.59;;;10.38;69.47
32251;BME280;41295;48.518;9.206;2023-03-26T10:06:11;96012.69;;;10.25;69.66
32251;BME280;41295;48.518;9.206;2023-03-26T10:08:26;96011.66;;;10.28;69.08
32251;BME280;41295;48.518;9.206;2023-03-26T10:10:40;96012.09;;;10.36;68.10
32251;BME280;41295;48.518;9.206;2023-03-26T10:12:48;96016.72;;;10.31;67.91
32251;BME280;41295;48.518;9.206;2023-03-26T10:15:07;96015.59;;;10.35;68.21
32251;BME280;41295;48.518;9.206;2023-03-26T10:17:40;96010.75;;;10.29;67.98
32251;BME280;41295;48.518;9.206;2023-03-26T10:20:01;96033.34;;;10.28;68.08
32251;BME280;41295;48.518;9.206;2023-03-26T10:22:24;96024.53;;;10.31;66.96
32251;BME280;41295;48.518;9.206;2023-03-26T10:24:45;96027.13;;;10.31;66.38
32251;BME280;41295;48.518;9.206;2023-03-26T10:27:05;96029.31;;;10.22;66.71
32251;BME280;41295;48.518;9.206;2023-03-26T10:29:24;96040.75;;;10.20;67.29
32251;BME280;41295;48.518;9.206;2023-03-26T10:31:38;96028.75;;;10.17;66.54
32251;BME280;41295;48.518;9.206;2023-03-26T10:33:48;96035.22;;;10.10;66.32
32251;BME280;41295;48.518;9.206;2023-03-26T10:36:11;96027.00;;;9.85;66.74
32251;BME280;41295;48.518;9.206;2023-03-26T10:38:23;96033.72;;;9.90;68.02
32251;BME280;41295;48.518;9.206;2023-03-26T10:40:34;96026.91;;;9.87;69.94
32251;BME280;41295;48.518;9.206;2023-03-26T10:45:52;96030.44;;;10.18;70.18
32251;BME280;41295;48.518;9.206;2023-03-26T10:48:11;96012.34;;;10.15;69.07
32251;BME280;41295;48.518;9.206;2023-03-26T10:50:42;96008.38;;;10.24;70.17
32251;BME280;41295;48.518;9.206;2023-03-26T10:52:53;96022.00;;;10.13;70.77
32251;BME280;41295;48.518;9.206;2023-03-26T10:55:06;96024.16;;;10.37;70.08
32251;BME280;41295;48.518;9.206;2023-03-26T10:57:25;96013.94;;;10.50;69.28
32251;BME280;41295;48.518;9.206;2023-03-26T10:59:30;96028.00;;;10.62;69.62
32251;BME280;41295;48.518;9.206;2023-03-26T11:01:42;96037.38;;;10.50;70.85
32251;BME280;41295;48.518;9.206;2023-03-26T11:03:49;96023.19;;;10.70;69.67
32251;BME280;41295;48.518;9.206;2023-03-26T11:05:57;96018.00;;;10.85;67.62
32251;BME280;41295;48.518;9.206;2023-03-26T11:08:07;96034.50;;;10.86;66.50
32251;BME280;41295;48.518;9.206;2023-03-26T11:10:14;96037.63;;;10.76;67.00
32251;BME280;41295;48.518;9.206;2023-03-26T11:12:25;96036.53;;;10.80;67.29
32251;BME280;41295;48.518;9.206;2023-03-26T11:14:34;96039.81;;;10.84;67.32
32251;BME280;41295;48.518;9.206;2023-03-26T11:16:50;96042.13;;;10.89;67.02
32251;BME280;41295;48.518;9.206;2023-03-26T11:18:58;96039.97;;;10.81;68.13
32251;BME280;41295;48.518;9.206;2023-03-26T11:21:08;96040.50;;;11.02;64.34
32251;BME280;41295;48.518;9.206;2023-03-26T11:23:31;96025.75;;;11.01;63.33
32251;BME280;41295;48.518;9.206;2023-03-26T11:25:44;96041.72;;;11.11;63.32
32251;BME280;41295;48.518;9.206;2023-03-26T11:27:58;96041.31;;;11.03;61.92
32251;BME280;41295;48.518;9.206;2023-03-26T11:30:14;96025.47;;;11.06;61.16
32251;BME280;41295;48.518;9.206;2023-03-26T11:32:21;96030.88;;;11.03;62.62
32251;BME280;41295;48.518;9.206;2023-03-26T11:34:27;96025.09;;;10.98;62.95
32251;BME280;41295;48.518;9.206;2023-03-26T11:36:36;96029.47;;;10.97;63.89
32251;BME280;41295;48.518;9.206;2023-03-26T11:38:43;96025.75;;;11.01;64.53
32251;BME280;41295;48.518;9.206;2023-03-26T11:40:49;96023.44;;;11.11;65.10
32251;BME280;41295;48.518;9.206;2023-03-26T11:42:56;96040.09;;;11.09;66.29
32251;BME280;41295;48.518;9.206;2023-03-26T11:45:02;96030.34;;;11.12;64.60
32251;BME280;41295;48.518;9.206;2023-03-26T11:47:09;96027.69;;;10.98;65.39
32251;BME280;41295;48.518;9.206;2023-03-26T11:49:17;96022.38;;;10.85;66.07